sensor_id;sensor_type;location;lat;lon;timestamp;temperature;humidity
16200;DHT22;8207;52.494;4.654;2022-10-31T00:01:44;13.40;99.90
16200;DHT22;8207;52.494;4.654;2022-10-31T00:04:11;13.40;99.90
16200;DHT22;8207;52.494;4.654;2022-10-31T00:06:39;13.30;99.90
16200;DHT22;8207;52.494;4.654;2022-10-31T00:09:06;13.30;99.90
16200;DHT22;8207;52.494;4.654;2022-10-31T00:11:33;13.30;99.90
16200;DHT22;8207;52.494;4.654;2022-10-31T00:14:00;13.20;99.90
16200;DHT22;8207;52.494;4.654;2022-10-31T00:16:28;13.20;99.90
16200;DHT22;8207;52.494;4.654;2022-10-31T00:18:56;13.20;99.90
16200;DHT22;8207;52.494;4.654;2022-10-31T00:21:24;13.10;99.90
16200;DHT22;8207;52.494;4.654;2022-10-31T00:23:52;13.10;99.90
16200;DHT22;8207;52.494;4.654;2022-10-31T00:26:19;13.10;99.90
16200;DHT22;8207;52.494;4.654;2022-10-31T00:28:46;13.00;99.90
16200;DHT22;8207;52.494;4.654;2022-10-31T00:31:13;13.00;99.90
16200;DHT22;8207;52.494;4.654;2022-10-31T00:33:41;12.90;99.90
16200;DHT22;8207;52.494;4.654;2022-10-31T00:36:11;12.90;99.90
16200;DHT22;8207;52.494;4.654;2022-10-31T00:38:38;12.90;99.90
16200;DHT22;8207;52.494;4.654;2022-10-31T00:41:07;12.80;99.90
16200;DHT22;8207;52.494;4.654;2022-10-31T00:43:34;12.80;99.90
16200;DHT22;8207;52.494;4.654;2022-10-31T00:46:01;12.80;99.90
16200;DHT22;8207;52.494;4.654;2022-10-31T00:48:28;12.70;99.90
16200;DHT22;8207;52.494;4.654;2022-10-31T00:50:55;12.70;99.90
16200;DHT22;8207;52.494;4.654;2022-10-31T00:53:22;12.70;99.90
16200;DHT22;8207;52.494;4.654;2022-10-31T00:55:49;12.70;99.90
16200;DHT22;8207;52.494;4.654;2022-10-31T00:58:17;12.60;99.90
16200;DHT22;8207;52.494;4.654;2022-10-31T01:00:46;12.60;99.90
16200;DHT22;8207;52.494;4.654;2022-10-31T01:03:13;12.60;99.90
16200;DHT22;8207;52.494;4.654;2022-10-31T01:05:40;12.60;99.90
16200;DHT22;8207;52.494;4.654;2022-10-31T01:08:06;12.60;99.90
16200;DHT22;8207;52.494;4.654;2022-10-31T01:10:33;12.60;99.90
16200;DHT22;8207;52.494;4.654;2022-10-31T01:13:00;12.50;99.90
16200;DHT22;8207;52.494;4.654;2022-10-31T01:15:28;12.50;99.90
16200;DHT22;8207;52.494;4.654;2022-10-31T01:17:55;12.50;99.90
16200;DHT22;8207;52.494;4.654;2022-10-31T01:20:22;12.50;99.90
16200;DHT22;8207;52.494;4.654;2022-10-31T01:22:49;12.50;99.90
16200;DHT22;8207;52.494;4.654;2022-10-31T01:25:16;12.50;99.90
16200;DHT22;8207;52.494;4.654;2022-10-31T01:27:43;12.40;99.90
16200;DHT22;8207;52.494;4.654;2022-10-31T01:30:10;12.40;99.90
16200;DHT22;8207;52.494;4.654;2022-10-31T01:32:39;12.30;99.90
16200;DHT22;8207;52.494;4.654;2022-10-31T01:35:06;12.30;99.90
16200;DHT22;8207;52.494;4.654;2022-10-31T01:37:33;12.30;99.90
16200;DHT22;8207;52.494;4.654;2022-10-31T01:39:59;12.30;99.90
16200;DHT22;8207;52.494;4.654;2022-10-31T01:42:26;12.40;99.90
16200;DHT22;8207;52.494;4.654;2022-10-31T01:44:56;12.30;99.90
16200;DHT22;8207;52.494;4.654;2022-10-31T01:47:34;12.30;99.90
16200;DHT22;8207;52.494;4.654;2022-10-31T01:50:10;12.30;99.90
16200;DHT22;8207;52.494;4.654;2022-10-31T01:52:41;12.30;99.90
16200;DHT22;8207;52.494;4.654;2022-10-31T01:55:11;12.30;99.90
16200;DHT22;8207;52.494;4.654;2022-10-31T01:57:43;12.20;99.90
16200;DHT22;8207;52.494;4.654;2022-10-31T02:00:11;12.20;99.90
16200;DHT22;8207;52.494;4.654;2022-10-31T02:02:38;12.20;99.90
16200;DHT22;8207;52.494;4.654;2022-10-31T02:05:09;12.20;99.90
16200;DHT22;8207;52.494;4.654;2022-10-31T02:07:39;12.10;99.90
16200;DHT22;8207;52.494;4.654;2022-10-31T02:10:08;12.10;99.90
16200;DHT22;8207;52.494;4.654;2022-10-31T02:12:35;12.10;99.90
16200;DHT22;8207;52.494;4.654;2022-10-31T02:15:03;12.00;99.90
16200;DHT22;8207;52.494;4.654;2022-10-31T02:17:31;12.00;99.90
16200;DHT22;8207;52.494;4.654;2022-10-31T02:20:08;12.00;99.90
16200;DHT22;8207;52.494;4.654;2022-10-31T02:22:42;12.00;99.90
16200;DHT22;8207;52.494;4.654;2022-10-31T02:25:28;11.90;99.90
16200;DHT22;8207;52.494;4.654;2022-10-31T02:31:09;11.90;99.90
16200;DHT22;8207;52.494;4.654;2022-10-31T02:33:44;11.90;99.90
16200;DHT22;8207;52.494;4.654;2022-10-31T02:36:19;11.90;99.90
16200;DHT22;8207;52.494;4.654;2022-10-31T02:38:55;11.80;99.90
16200;DHT22;8207;52.494;4.654;2022-10-31T02:41:32;11.80;99.90
16200;DHT22;8207;52.494;4.654;2022-10-31T02:44:07;11.70;99.90
16200;DHT22;8207;52.494;4.654;2022-10-31T02:46:39;11.70;99.90
16200;DHT22;8207;52.494;4.654;2022-10-31T02:49:11;11.70;99.90
16200;DHT22;8207;52.494;4.654;2022-10-31T02:51:39;11.60;99.90
16200;DHT22;8207;52.494;4.654;2022-10-31T02:54:17;11.60;99.90
16200;DHT22;8207;52.494;4.654;2022-10-31T02:56:44;11.60;99.90
16200;DHT22;8207;52.494;4.654;2022-10-31T02:59:12;11.50;99.90
16200;DHT22;8207;52.494;4.654;2022-10-31T03:01:54;11.50;99.90
16200;DHT22;8207;52.494;4.654;2022-10-31T03:04:36;11.50;99.90
16200;DHT22;8207;52.494;4.654;2022-10-31T03:07:11;11.50;99.90
16200;DHT22;8207;52.494;4.654;2022-10-31T03:09:48;11.50;99.90
16200;DHT22;8207;52.494;4.654;2022-10-31T03:12:25;11.50;99.90
16200;DHT22;8207;52.494;4.654;2022-10-31T03:14:56;11.50;99.90
16200;DHT22;8207;52.494;4.654;2022-10-31T03:17:36;11.50;99.90
16200;DHT22;8207;52.494;4.654;2022-10-31T03:20:06;11.50;99.90
16200;DHT22;8207;52.494;4.654;2022-10-31T03:22:38;11.50;99.90
16200;DHT22;8207;52.494;4.654;2022-10-31T03:25:07;11.50;99.90
16200;DHT22;8207;52.494;4.654;2022-10-31T03:27:37;11.50;99.90
16200;DHT22;8207;52.494;4.654;2022-10-31T03:30:07;11.40;99.90
16200;DHT22;8207;52.494;4.654;2022-10-31T03:32:39;11.40;99.90
16200;DHT22;8207;52.494;4.654;2022-10-31T03:35:08;11.40;99.90
16200;DHT22;8207;52.494;4.654;2022-10-31T03:37:37;11.30;99.90
16200;DHT22;8207;52.494;4.654;2022-10-31T03:40:08;11.30;99.90
16200;DHT22;8207;52.494;4.654;2022-10-31T03:42:38;11.20;99.90
16200;DHT22;8207;52.494;4.654;2022-10-31T03:45:09;11.20;99.90
16200;DHT22;8207;52.494;4.654;2022-10-31T03:47:40;11.20;99.90
16200;DHT22;8207;52.494;4.654;2022-10-31T03:50:09;11.10;99.90
16200;DHT22;8207;52.494;4.654;2022-10-31T03:52:42;11.10;99.90
16200;DHT22;8207;52.494;4.654;2022-10-31T03:55:17;11.10;99.90
16200;DHT22;8207;52.494;4.654;2022-10-31T03:57:50;11.00;99.90
16200;DHT22;8207;52.494;4.654;2022-10-31T04:00:19;11.00;99.90
16200;DHT22;8207;52.494;4.654;2022-10-31T04:02:51;11.00;99.90
16200;DHT22;8207;52.494;4.654;2022-10-31T04:05:20;11.10;99.90
16200;DHT22;8207;52.494;4.654;2022-10-31T04:07:51;11.00;99.90
16200;DHT22;8207;52.494;4.654;2022-10-31T04:10:23;11.00;99.90
16200;DHT22;8207;52.494;4.654;2022-10-31T04:12:55;11.00;99.90
16200;DHT22;8207;52.494;4.654;2022-10-31T04:15:24;10.90;99.90
16200;DHT22;8207;52.494;4.654;2022-10-31T04:17:56;10.90;99.90
16200;DHT22;8207;52.494;4.654;2022-10-31T04:20:30;10.80;99.90
16200;DHT22;8207;52.494;4.654;2022-10-31T04:22:58;10.80;99.90
16200;DHT22;8207;52.494;4.654;2022-10-31T04:25:25;10.80;99.90
16200;DHT22;8207;52.494;4.654;2022-10-31T04:27:51;10.80;99.90
16200;DHT22;8207;52.494;4.654;2022-10-31T04:30:18;10.80;99.90
16200;DHT22;8207;52.494;4.654;2022-10-31T04:32:45;10.70;99.90
16200;DHT22;8207;52.494;4.654;2022-10-31T04:35:13;10.70;99.90
16200;DHT22;8207;52.494;4.654;2022-10-31T04:37:41;10.70;99.90
16200;DHT22;8207;52.494;4.654;2022-10-31T04:40:09;10.60;99.90
16200;DHT22;8207;52.494;4.654;2022-10-31T04:42:36;10.60;99.90
16200;DHT22;8207;52.494;4.654;2022-10-31T04:45:03;10.60;99.90
16200;DHT22;8207;52.494;4.654;2022-10-31T04:47:31;10.60;99.90
16200;DHT22;8207;52.494;4.654;2022-10-31T04:49:58;10.60;99.90
16200;DHT22;8207;52.494;4.654;2022-10-31T04:52:26;10.60;99.90
16200;DHT22;8207;52.494;4.654;2022-10-31T04:54:53;10.60;99.90
16200;DHT22;8207;52.494;4.654;2022-10-31T04:57:19;10.70;99.90
16200;DHT22;8207;52.494;4.654;2022-10-31T04:59:46;10.70;99.90
16200;DHT22;8207;52.494;4.654;2022-10-31T05:02:13;10.80;99.90
16200;DHT22;8207;52.494;4.654;2022-10-31T05:04:40;10.80;99.90
16200;DHT22;8207;52.494;4.654;2022-10-31T05:07:07;10.80;99.90
16200;DHT22;8207;52.494;4.654;2022-10-31T05:09:35;10.90;99.90
16200;DHT22;8207;52.494;4.654;2022-10-31T05:12:02;10.90;99.90
16200;DHT22;8207;52.494;4.654;2022-10-31T05:14:29;10.90;99.90
16200;DHT22;8207;52.494;4.654;2022-10-31T05:16:56;10.90;99.90
16200;DHT22;8207;52.494;4.654;2022-10-31T05:19:23;11.00;99.90
16200;DHT22;8207;52.494;4.654;2022-10-31T05:21:49;10.90;99.90
16200;DHT22;8207;52.494;4.654;2022-10-31T05:24:16;10.90;99.90
16200;DHT22;8207;52.494;4.654;2022-10-31T05:26:44;10.90;99.90
16200;DHT22;8207;52.494;4.654;2022-10-31T05:29:11;10.90;99.90
16200;DHT22;8207;52.494;4.654;2022-10-31T05:31:38;10.90;99.90
16200;DHT22;8207;52.494;4.654;2022-10-31T05:34:05;10.90;99.90
16200;DHT22;8207;52.494;4.654;2022-10-31T05:36:32;10.90;99.90
16200;DHT22;8207;52.494;4.654;2022-10-31T05:38:59;10.80;99.90
16200;DHT22;8207;52.494;4.654;2022-10-31T05:41:26;10.80;99.90
16200;DHT22;8207;52.494;4.654;2022-10-31T05:43:54;10.80;99.90
16200;DHT22;8207;52.494;4.654;2022-10-31T05:46:20;10.80;99.90
16200;DHT22;8207;52.494;4.654;2022-10-31T05:48:47;10.80;99.90
16200;DHT22;8207;52.494;4.654;2022-10-31T05:51:14;10.80;99.90
16200;DHT22;8207;52.494;4.654;2022-10-31T05:53:41;10.70;99.90
16200;DHT22;8207;52.494;4.654;2022-10-31T05:56:08;10.70;99.90
16200;DHT22;8207;52.494;4.654;2022-10-31T05:58:35;10.80;99.90
16200;DHT22;8207;52.494;4.654;2022-10-31T06:01:03;10.70;99.90
16200;DHT22;8207;52.494;4.654;2022-10-31T06:03:31;10.70;99.90
16200;DHT22;8207;52.494;4.654;2022-10-31T06:05:57;10.70;99.90
16200;DHT22;8207;52.494;4.654;2022-10-31T06:08:24;10.60;99.90
16200;DHT22;8207;52.494;4.654;2022-10-31T06:10:51;10.60;99.90
16200;DHT22;8207;52.494;4.654;2022-10-31T06:13:19;10.50;99.90
16200;DHT22;8207;52.494;4.654;2022-10-31T06:15:46;10.40;99.90
16200;DHT22;8207;52.494;4.654;2022-10-31T06:18:14;10.40;99.90
16200;DHT22;8207;52.494;4.654;2022-10-31T06:20:41;10.40;99.90
16200;DHT22;8207;52.494;4.654;2022-10-31T06:23:09;10.40;99.90
16200;DHT22;8207;52.494;4.654;2022-10-31T06:25:36;10.40;99.90
16200;DHT22;8207;52.494;4.654;2022-10-31T06:28:03;10.40;99.90
16200;DHT22;8207;52.494;4.654;2022-10-31T06:30:30;10.40;99.90
16200;DHT22;8207;52.494;4.654;2022-10-31T06:33:02;10.50;99.90
16200;DHT22;8207;52.494;4.654;2022-10-31T06:35:31;10.50;99.90
16200;DHT22;8207;52.494;4.654;2022-10-31T06:37:58;10.50;99.90
16200;DHT22;8207;52.494;4.654;2022-10-31T06:40:25;10.50;99.90
16200;DHT22;8207;52.494;4.654;2022-10-31T06:42:59;10.50;99.90
16200;DHT22;8207;52.494;4.654;2022-10-31T06:45:26;10.50;99.90
16200;DHT22;8207;52.494;4.654;2022-10-31T06:47:54;10.50;99.90
16200;DHT22;8207;52.494;4.654;2022-10-31T06:50:22;10.60;99.90
16200;DHT22;8207;52.494;4.654;2022-10-31T06:52:53;10.60;99.90
16200;DHT22;8207;52.494;4.654;2022-10-31T06:55:21;10.60;99.90
16200;DHT22;8207;52.494;4.654;2022-10-31T06:57:50;10.60;99.90
16200;DHT22;8207;52.494;4.654;2022-10-31T07:00:17;10.70;99.90
16200;DHT22;8207;52.494;4.654;2022-10-31T07:02:51;10.70;99.90
16200;DHT22;8207;52.494;4.654;2022-10-31T07:05:18;10.70;99.90
16200;DHT22;8207;52.494;4.654;2022-10-31T07:07:45;10.80;99.90
16200;DHT22;8207;52.494;4.654;2022-10-31T07:10:14;10.80;99.90
16200;DHT22;8207;52.494;4.654;2022-10-31T07:12:40;10.80;99.90
16200;DHT22;8207;52.494;4.654;2022-10-31T07:15:08;10.80;99.90
16200;DHT22;8207;52.494;4.654;2022-10-31T07:17:35;10.80;99.90
16200;DHT22;8207;52.494;4.654;2022-10-31T07:20:02;10.90;99.90
16200;DHT22;8207;52.494;4.654;2022-10-31T07:22:33;10.90;99.90
16200;DHT22;8207;52.494;4.654;2022-10-31T07:25:00;10.90;99.90
16200;DHT22;8207;52.494;4.654;2022-10-31T07:27:28;11.00;99.90
16200;DHT22;8207;52.494;4.654;2022-10-31T07:29:55;11.00;99.90
16200;DHT22;8207;52.494;4.654;2022-10-31T07:32:21;11.10;99.90
16200;DHT22;8207;52.494;4.654;2022-10-31T07:34:48;11.10;99.90
16200;DHT22;8207;52.494;4.654;2022-10-31T07:37:15;11.10;99.90
16200;DHT22;8207;52.494;4.654;2022-10-31T07:39:42;11.20;99.90
16200;DHT22;8207;52.494;4.654;2022-10-31T07:42:09;11.20;99.90
16200;DHT22;8207;52.494;4.654;2022-10-31T07:44:37;11.30;99.90
16200;DHT22;8207;52.494;4.654;2022-10-31T07:47:04;11.30;99.90
16200;DHT22;8207;52.494;4.654;2022-10-31T07:49:31;11.40;99.90
16200;DHT22;8207;52.494;4.654;2022-10-31T07:51:58;11.40;99.90
16200;DHT22;8207;52.494;4.654;2022-10-31T07:54:25;11.50;99.90
16200;DHT22;8207;52.494;4.654;2022-10-31T07:56:51;11.60;99.90
16200;DHT22;8207;52.494;4.654;2022-10-31T07:59:18;11.60;99.90
16200;DHT22;8207;52.494;4.654;2022-10-31T08:01:47;11.70;99.90
16200;DHT22;8207;52.494;4.654;2022-10-31T08:04:14;11.80;99.90
16200;DHT22;8207;52.494;4.654;2022-10-31T08:06:41;11.80;99.90
16200;DHT22;8207;52.494;4.654;2022-10-31T08:09:07;11.80;99.90
16200;DHT22;8207;52.494;4.654;2022-10-31T08:11:34;11.80;99.90
16200;DHT22;8207;52.494;4.654;2022-10-31T08:14:01;11.90;99.90
16200;DHT22;8207;52.494;4.654;2022-10-31T08:16:28;12.00;99.90
16200;DHT22;8207;52.494;4.654;2022-10-31T08:18:56;12.00;99.90
16200;DHT22;8207;52.494;4.654;2022-10-31T08:21:23;12.00;99.90
16200;DHT22;8207;52.494;4.654;2022-10-31T08:23:50;12.10;99.90
16200;DHT22;8207;52.494;4.654;2022-10-31T08:26:17;12.20;99.90
16200;DHT22;8207;52.494;4.654;2022-10-31T08:28:44;12.20;99.90
16200;DHT22;8207;52.494;4.654;2022-10-31T08:31:11;12.30;99.90
16200;DHT22;8207;52.494;4.654;2022-10-31T08:33:38;12.30;99.90
16200;DHT22;8207;52.494;4.654;2022-10-31T08:36:07;12.30;99.90
16200;DHT22;8207;52.494;4.654;2022-10-31T08:38:34;12.40;99.90
16200;DHT22;8207;52.494;4.654;2022-10-31T08:41:01;12.40;99.90
16200;DHT22;8207;52.494;4.654;2022-10-31T08:43:27;12.50;99.90
16200;DHT22;8207;52.494;4.654;2022-10-31T08:45:54;12.50;99.90
16200;DHT22;8207;52.494;4.654;2022-10-31T08:48:21;12.60;99.90
16200;DHT22;8207;52.494;4.654;2022-10-31T08:50:48;12.60;99.90
16200;DHT22;8207;52.494;4.654;2022-10-31T08:53:18;12.60;99.90
16200;DHT22;8207;52.494;4.654;2022-10-31T08:55:46;12.70;99.90
16200;DHT22;8207;52.494;4.654;2022-10-31T08:58:14;12.80;99.90
16200;DHT22;8207;52.494;4.654;2022-10-31T09:00:43;12.80;99.90
16200;DHT22;8207;52.494;4.654;2022-10-31T09:03:12;12.90;99.90
16200;DHT22;8207;52.494;4.654;2022-10-31T09:05:39;12.90;99.90
16200;DHT22;8207;52.494;4.654;2022-10-31T09:08:07;13.00;99.90
16200;DHT22;8207;52.494;4.654;2022-10-31T09:10:36;13.00;99.90
16200;DHT22;8207;52.494;4.654;2022-10-31T09:13:04;13.10;99.90
16200;DHT22;8207;52.494;4.654;2022-10-31T09:15:32;13.20;99.90
16200;DHT22;8207;52.494;4.654;2022-10-31T09:17:59;13.20;99.90
16200;DHT22;8207;52.494;4.654;2022-10-31T09:20:27;13.30;99.90
16200;DHT22;8207;52.494;4.654;2022-10-31T09:22:58;13.30;99.90
16200;DHT22;8207;52.494;4.654;2022-10-31T09:25:27;13.40;99.90
16200;DHT22;8207;52.494;4.654;2022-10-31T09:27:57;13.40;99.90
16200;DHT22;8207;52.494;4.654;2022-10-31T09:30:24;13.50;99.90
16200;DHT22;8207;52.494;4.654;2022-10-31T09:32:55;13.50;99.90
16200;DHT22;8207;52.494;4.654;2022-10-31T09:35:22;13.50;99.90
16200;DHT22;8207;52.494;4.654;2022-10-31T09:37:54;13.50;99.90
16200;DHT22;8207;52.494;4.654;2022-10-31T09:40:21;13.60;99.90
16200;DHT22;8207;52.494;4.654;2022-10-31T09:42:58;13.60;99.90
16200;DHT22;8207;52.494;4.654;2022-10-31T09:45:32;13.60;99.90
16200;DHT22;8207;52.494;4.654;2022-10-31T09:48:13;13.60;99.90
16200;DHT22;8207;52.494;4.654;2022-10-31T09:50:44;13.60;99.90
16200;DHT22;8207;52.494;4.654;2022-10-31T09:53:18;13.60;99.90
16200;DHT22;8207;52.494;4.654;2022-10-31T09:55:49;13.60;99.90
16200;DHT22;8207;52.494;4.654;2022-10-31T09:58:20;13.60;99.90
16200;DHT22;8207;52.494;4.654;2022-10-31T10:00:49;13.60;99.90
16200;DHT22;8207;52.494;4.654;2022-10-31T10:03:26;13.60;99.90
16200;DHT22;8207;52.494;4.654;2022-10-31T10:05:59;13.70;99.90
16200;DHT22;8207;52.494;4.654;2022-10-31T10:08:31;13.70;99.90
16200;DHT22;8207;52.494;4.654;2022-10-31T10:11:07;13.80;99.90
16200;DHT22;8207;52.494;4.654;2022-10-31T10:13:55;13.90;99.90
16200;DHT22;8207;52.494;4.654;2022-10-31T10:16:37;14.10;99.90
16200;DHT22;8207;52.494;4.654;2022-10-31T10:19:27;14.20;99.90
16200;DHT22;8207;52.494;4.654;2022-10-31T10:22:07;14.30;99.90
16200;DHT22;8207;52.494;4.654;2022-10-31T10:24:51;14.30;99.90
16200;DHT22;8207;52.494;4.654;2022-10-31T10:27:23;14.40;99.90
16200;DHT22;8207;52.494;4.654;2022-10-31T10:29:57;14.40;99.90
16200;DHT22;8207;52.494;4.654;2022-10-31T10:32:28;14.50;99.90
16200;DHT22;8207;52.494;4.654;2022-10-31T10:34:59;14.50;99.90
16200;DHT22;8207;52.494;4.654;2022-10-31T10:37:31;14.60;99.90
16200;DHT22;8207;52.494;4.654;2022-10-31T10:40:05;14.70;99.90
16200;DHT22;8207;52.494;4.654;2022-10-31T10:42:33;14.80;99.90
16200;DHT22;8207;52.494;4.654;2022-10-31T10:45:19;14.80;99.90
16200;DHT22;8207;52.494;4.654;2022-10-31T10:48:08;14.90;99.90
16200;DHT22;8207;52.494;4.654;2022-10-31T10:50:42;15.00;99.90
16200;DHT22;8207;52.494;4.654;2022-10-31T10:53:24;15.00;99.90
16200;DHT22;8207;52.494;4.654;2022-10-31T10:56:02;15.10;99.90
16200;DHT22;8207;52.494;4.654;2022-10-31T10:58:31;15.10;99.90
16200;DHT22;8207;52.494;4.654;2022-10-31T11:00:59;15.20;99.90
16200;DHT22;8207;52.494;4.654;2022-10-31T11:03:27;15.20;99.90
16200;DHT22;8207;52.494;4.654;2022-10-31T11:05:56;15.30;99.90
16200;DHT22;8207;52.494;4.654;2022-10-31T11:08:24;15.40;99.90
16200;DHT22;8207;52.494;4.654;2022-10-31T11:11:00;15.50;99.90
16200;DHT22;8207;52.494;4.654;2022-10-31T11:13:27;15.50;99.90
16200;DHT22;8207;52.494;4.654;2022-10-31T11:15:59;15.60;99.90
16200;DHT22;8207;52.494;4.654;2022-10-31T11:18:29;15.70;99.90
16200;DHT22;8207;52.494;4.654;2022-10-31T11:20:58;15.80;99.90
16200;DHT22;8207;52.494;4.654;2022-10-31T11:23:27;16.00;99.90
16200;DHT22;8207;52.494;4.654;2022-10-31T11:25:56;16.20;99.90
16200;DHT22;8207;52.494;4.654;2022-10-31T11:28:23;16.40;99.90
16200;DHT22;8207;52.494;4.654;2022-10-31T11:30:51;16.50;99.90
16200;DHT22;8207;52.494;4.654;2022-10-31T11:33:26;16.70;99.90
16200;DHT22;8207;52.494;4.654;2022-10-31T11:35:53;16.90;99.90
16200;DHT22;8207;52.494;4.654;2022-10-31T11:38:23;17.00;99.90
16200;DHT22;8207;52.494;4.654;2022-10-31T11:40:56;17.00;99.90
16200;DHT22;8207;52.494;4.654;2022-10-31T11:43:24;17.10;99.90
16200;DHT22;8207;52.494;4.654;2022-10-31T11:45:51;17.10;99.90
16200;DHT22;8207;52.494;4.654;2022-10-31T11:48:22;17.10;99.90
16200;DHT22;8207;52.494;4.654;2022-10-31T11:50:51;17.10;99.90
16200;DHT22;8207;52.494;4.654;2022-10-31T11:53:24;17.00;99.90
16200;DHT22;8207;52.494;4.654;2022-10-31T11:56:03;17.00;99.90
16200;DHT22;8207;52.494;4.654;2022-10-31T11:58:31;16.90;99.90
16200;DHT22;8207;52.494;4.654;2022-10-31T12:00:58;16.90;99.90
16200;DHT22;8207;52.494;4.654;2022-10-31T12:03:43;17.00;99.90
16200;DHT22;8207;52.494;4.654;2022-10-31T12:06:18;17.10;99.90
16200;DHT22;8207;52.494;4.654;2022-10-31T12:08:46;17.20;99.90
16200;DHT22;8207;52.494;4.654;2022-10-31T12:11:30;17.10;99.90
16200;DHT22;8207;52.494;4.654;2022-10-31T12:14:09;17.20;99.90
16200;DHT22;8207;52.494;4.654;2022-10-31T12:16:42;17.20;99.90
16200;DHT22;8207;52.494;4.654;2022-10-31T12:19:21;17.20;99.90
16200;DHT22;8207;52.494;4.654;2022-10-31T12:22:07;17.20;99.90
16200;DHT22;8207;52.494;4.654;2022-10-31T12:24:50;17.30;99.90
16200;DHT22;8207;52.494;4.654;2022-10-31T12:27:27;17.30;99.90
16200;DHT22;8207;52.494;4.654;2022-10-31T12:30:18;17.40;99.90
16200;DHT22;8207;52.494;4.654;2022-10-31T12:33:11;17.40;99.90
16200;DHT22;8207;52.494;4.654;2022-10-31T12:35:45;17.40;99.90
16200;DHT22;8207;52.494;4.654;2022-10-31T12:38:35;17.40;99.90
16200;DHT22;8207;52.494;4.654;2022-10-31T12:41:22;17.40;99.90
16200;DHT22;8207;52.494;4.654;2022-10-31T12:43:56;17.50;99.90
16200;DHT22;8207;52.494;4.654;2022-10-31T12:46:32;17.50;99.90
16200;DHT22;8207;52.494;4.654;2022-10-31T12:52:16;17.50;99.90
16200;DHT22;8207;52.494;4.654;2022-10-31T12:54:55;17.50;99.90
16200;DHT22;8207;52.494;4.654;2022-10-31T12:57:29;17.50;99.90
16200;DHT22;8207;52.494;4.654;2022-10-31T13:00:02;17.50;99.90
16200;DHT22;8207;52.494;4.654;2022-10-31T13:02:35;17.50;99.90
16200;DHT22;8207;52.494;4.654;2022-10-31T13:05:24;17.50;99.90
16200;DHT22;8207;52.494;4.654;2022-10-31T13:07:56;17.50;99.90
16200;DHT22;8207;52.494;4.654;2022-10-31T13:10:27;17.60;99.90
16200;DHT22;8207;52.494;4.654;2022-10-31T13:13:02;17.50;99.90
16200;DHT22;8207;52.494;4.654;2022-10-31T13:15:34;17.50;99.90
16200;DHT22;8207;52.494;4.654;2022-10-31T13:18:11;17.40;99.90
16200;DHT22;8207;52.494;4.654;2022-10-31T13:20:42;17.40;99.90
16200;DHT22;8207;52.494;4.654;2022-10-31T13:23:19;17.30;99.90
16200;DHT22;8207;52.494;4.654;2022-10-31T13:25:51;17.20;99.90
16200;DHT22;8207;52.494;4.654;2022-10-31T13:28:25;17.20;99.90
16200;DHT22;8207;52.494;4.654;2022-10-31T13:30:53;17.20;99.90
16200;DHT22;8207;52.494;4.654;2022-10-31T13:33:25;17.30;99.90
16200;DHT22;8207;52.494;4.654;2022-10-31T13:35:58;17.30;99.90
16200;DHT22;8207;52.494;4.654;2022-10-31T13:38:32;17.40;99.90
16200;DHT22;8207;52.494;4.654;2022-10-31T13:41:06;17.50;99.90
16200;DHT22;8207;52.494;4.654;2022-10-31T13:43:50;17.50;99.90
16200;DHT22;8207;52.494;4.654;2022-10-31T13:46:25;17.60;99.90
16200;DHT22;8207;52.494;4.654;2022-10-31T13:48:53;17.70;99.90
16200;DHT22;8207;52.494;4.654;2022-10-31T13:51:25;17.70;99.90
16200;DHT22;8207;52.494;4.654;2022-10-31T13:53:59;17.70;99.90
16200;DHT22;8207;52.494;4.654;2022-10-31T13:56:29;17.70;99.90
16200;DHT22;8207;52.494;4.654;2022-10-31T13:59:00;17.70;99.90
16200;DHT22;8207;52.494;4.654;2022-10-31T14:01:27;17.70;99.90
16200;DHT22;8207;52.494;4.654;2022-10-31T14:04:01;17.70;99.90
16200;DHT22;8207;52.494;4.654;2022-10-31T14:06:42;17.60;99.90
16200;DHT22;8207;52.494;4.654;2022-10-31T14:09:23;17.60;99.90
16200;DHT22;8207;52.494;4.654;2022-10-31T14:11:52;17.60;99.90
16200;DHT22;8207;52.494;4.654;2022-10-31T14:14:20;17.60;99.90
16200;DHT22;8207;52.494;4.654;2022-10-31T14:16:54;17.60;99.90
16200;DHT22;8207;52.494;4.654;2022-10-31T14:19:22;17.60;99.90
16200;DHT22;8207;52.494;4.654;2022-10-31T14:21:50;17.50;99.90
16200;DHT22;8207;52.494;4.654;2022-10-31T14:24:33;17.60;99.90
16200;DHT22;8207;52.494;4.654;2022-10-31T14:27:02;17.50;99.90
16200;DHT22;8207;52.494;4.654;2022-10-31T14:29:30;17.50;99.90
16200;DHT22;8207;52.494;4.654;2022-10-31T14:32:04;17.50;99.90
16200;DHT22;8207;52.494;4.654;2022-10-31T14:34:38;17.40;99.90
16200;DHT22;8207;52.494;4.654;2022-10-31T14:37:28;17.40;99.90
16200;DHT22;8207;52.494;4.654;2022-10-31T14:40:07;17.40;99.90
16200;DHT22;8207;52.494;4.654;2022-10-31T14:42:49;17.30;99.90
16200;DHT22;8207;52.494;4.654;2022-10-31T14:45:25;17.30;99.90
16200;DHT22;8207;52.494;4.654;2022-10-31T14:48:05;17.20;99.90
16200;DHT22;8207;52.494;4.654;2022-10-31T14:50:42;17.10;99.90
16200;DHT22;8207;52.494;4.654;2022-10-31T14:53:16;17.10;99.90
16200;DHT22;8207;52.494;4.654;2022-10-31T14:55:48;17.00;99.90
16200;DHT22;8207;52.494;4.654;2022-10-31T14:58:18;17.00;99.90
16200;DHT22;8207;52.494;4.654;2022-10-31T15:00:47;16.90;99.90
16200;DHT22;8207;52.494;4.654;2022-10-31T15:03:16;16.90;99.90
16200;DHT22;8207;52.494;4.654;2022-10-31T15:05:47;16.80;99.90
16200;DHT22;8207;52.494;4.654;2022-10-31T15:08:27;16.80;99.90
16200;DHT22;8207;52.494;4.654;2022-10-31T15:10:57;16.70;99.90
16200;DHT22;8207;52.494;4.654;2022-10-31T15:13:24;16.70;99.90
16200;DHT22;8207;52.494;4.654;2022-10-31T15:15:53;16.60;99.90
16200;DHT22;8207;52.494;4.654;2022-10-31T15:18:23;16.60;99.90
16200;DHT22;8207;52.494;4.654;2022-10-31T15:20:51;16.50;99.90
16200;DHT22;8207;52.494;4.654;2022-10-31T15:23:23;16.50;99.90
16200;DHT22;8207;52.494;4.654;2022-10-31T15:25:50;16.50;99.90
16200;DHT22;8207;52.494;4.654;2022-10-31T15:28:24;16.40;99.90
16200;DHT22;8207;52.494;4.654;2022-10-31T15:30:52;16.40;99.90
16200;DHT22;8207;52.494;4.654;2022-10-31T15:33:21;16.40;99.90
16200;DHT22;8207;52.494;4.654;2022-10-31T15:35:57;16.30;99.90
16200;DHT22;8207;52.494;4.654;2022-10-31T15:38:25;16.30;99.90
16200;DHT22;8207;52.494;4.654;2022-10-31T15:40:55;16.30;99.90
16200;DHT22;8207;52.494;4.654;2022-10-31T15:43:24;16.30;99.90
16200;DHT22;8207;52.494;4.654;2022-10-31T15:45:51;16.20;99.90
16200;DHT22;8207;52.494;4.654;2022-10-31T15:48:22;16.20;99.90
16200;DHT22;8207;52.494;4.654;2022-10-31T15:50:52;16.20;99.90
16200;DHT22;8207;52.494;4.654;2022-10-31T15:53:21;16.20;99.90
16200;DHT22;8207;52.494;4.654;2022-10-31T15:55:52;16.10;99.90
16200;DHT22;8207;52.494;4.654;2022-10-31T15:58:19;16.10;99.90
16200;DHT22;8207;52.494;4.654;2022-10-31T16:00:59;16.00;99.90
16200;DHT22;8207;52.494;4.654;2022-10-31T16:03:27;16.00;99.90
16200;DHT22;8207;52.494;4.654;2022-10-31T16:05:57;16.10;99.90
16200;DHT22;8207;52.494;4.654;2022-10-31T16:08:26;16.00;99.90
16200;DHT22;8207;52.494;4.654;2022-10-31T16:10:58;16.00;99.90
16200;DHT22;8207;52.494;4.654;2022-10-31T16:13:28;15.90;99.90